Time;durP1;ratioP1;P1;durP2;ratioP2;P2;SDS_P1;SDS_P2;PMS_P1;PMS_P2;Temp;Humidity;BMP_temperature;BMP_pressure;BME280_temperature;BME280_humidity;BME280_pressure;Samples;Min_cycle;Max_cycle;Signal;HPM_P1;HPM_P2
2023/08/18 00:00:34;;;;;;;16.27;14.65;;;;;;;17.77;100.00;101667.03;5048480;28;20370;-81
2023/08/18 00:02:59;;;;;;;15.45;13.93;;;;;;;17.82;100.00;101667.44;5026210;28;20025;-81
2023/08/18 00:05:25;;;;;;;15.82;14.32;;;;;;;17.77;100.00;101668.88;5044578;28;20029;-81
2023/08/18 00:07:50;;;;;;;16.48;14.98;;;;;;;17.72;100.00;101657.78;5062001;28;20388;-81
2023/08/18 00:10:16;;;;;;;18.50;14.68;;;;;;;17.70;100.00;101663.25;5032472;28;20022;-81
2023/08/18 00:12:44;;;;;;;15.80;14.23;;;;;;;17.69;100.00;101664.25;5031424;28;20470;-81
2023/08/18 00:15:09;;;;;;;15.43;14.00;;;;;;;17.70;100.00;101655.28;5061802;28;20025;-81
2023/08/18 00:17:35;;;;;;;15.25;13.75;;;;;;;17.68;100.00;101653.72;5031441;28;20023;-81
2023/08/18 00:20:02;;;;;;;15.55;13.57;;;;;;;17.64;100.00;101652.31;5021157;28;20026;-81
2023/08/18 00:22:28;;;;;;;15.18;13.57;;;;;;;17.60;100.00;101653.53;5030173;28;20045;-81
2023/08/18 00:24:55;;;;;;;14.80;13.45;;;;;;;17.57;100.00;101651.16;5032340;28;20017;-81
2023/08/18 00:27:21;;;;;;;14.38;13.13;;;;;;;17.52;100.00;101648.91;5032053;28;20095;-82
2023/08/18 00:29:46;;;;;;;13.90;12.55;;;;;;;17.50;100.00;101646.38;5037833;28;20064;-81
2023/08/18 00:32:12;;;;;;;16.30;13.55;;;;;;;17.48;100.00;101655.50;5052102;28;20055;-81
2023/08/18 00:34:40;;;;;;;15.05;12.93;;;;;;;17.46;100.00;101654.78;5052077;28;20040;-81
2023/08/18 00:37:06;;;;;;;14.13;12.82;;;;;;;17.45;100.00;101643.31;5025236;28;20039;-81
2023/08/18 00:39:31;;;;;;;14.52;13.15;;;;;;;17.42;100.00;101640.94;5033324;28;20052;-81
2023/08/18 00:41:57;;;;;;;14.07;12.70;;;;;;;17.40;100.00;101634.06;5049755;28;20021;-79
2023/08/18 00:44:22;;;;;;;14.05;12.50;;;;;;;17.39;100.00;101632.38;5035221;28;20039;-81
2023/08/18 00:46:48;;;;;;;14.45;12.65;;;;;;;17.38;100.00;101641.34;5049817;28;20055;-81
2023/08/18 00:49:16;;;;;;;14.02;12.80;;;;;;;17.35;100.00;101642.47;5051848;28;20033;-81
2023/08/18 00:51:45;;;;;;;14.10;12.70;;;;;;;17.34;100.00;101651.41;5051518;28;20021;-81
2023/08/18 00:54:12;;;;;;;13.25;11.90;;;;;;;17.32;100.00;101645.41;5028853;28;20074;-81
2023/08/18 00:56:38;;;;;;;13.77;12.45;;;;;;;17.31;100.00;101646.38;5050584;28;20525;-81
2023/08/18 00:59:05;;;;;;;14.13;12.38;;;;;;;17.30;100.00;101651.84;5052040;28;20032;-82
2023/08/18 01:01:32;;;;;;;14.77;12.10;;;;;;;17.27;100.00;101644.97;5052052;28;20100;-81
2023/08/18 01:03:58;;;;;;;14.63;12.77;;;;;;;17.25;100.00;101646.09;5038504;28;20037;-81
2023/08/18 01:06:23;;;;;;;13.98;12.63;;;;;;;17.22;100.00;101642.72;5031331;28;20032;-81
2023/08/18 01:08:50;;;;;;;14.02;12.43;;;;;;;17.18;100.00;101645.78;5024078;28;20034;-81
2023/08/18 01:11:27;;;;;;;14.60;12.27;;;;;;;17.19;100.00;101647.44;5049485;28;20025;-81
2023/08/18 01:14:01;;;;;;;15.77;12.80;;;;;;;17.16;100.00;101650.38;5045830;28;20033;-81
2023/08/18 01:16:28;;;;;;;13.75;12.43;;;;;;;17.17;100.00;101652.06;5049889;28;20028;-81
2023/08/18 01:18:54;;;;;;;14.23;12.80;;;;;;;17.15;100.00;101651.38;5030697;28;20033;-81
2023/08/18 01:21:23;;;;;;;14.68;13.02;;;;;;;17.18;100.00;101656.41;5038513;28;20055;-81
2023/08/18 01:23:48;;;;;;;14.32;12.98;;;;;;;17.14;100.00;101633.72;5038360;28;20017;-82
2023/08/18 01:26:14;;;;;;;14.13;12.68;;;;;;;17.13;100.00;101630.22;5039038;28;20565;-80
2023/08/18 01:28:43;;;;;;;14.23;12.43;;;;;;;17.14;100.00;101628.41;5037977;28;20025;-80
2023/08/18 01:31:19;;;;;;;14.63;12.68;;;;;;;17.10;100.00;101621.69;5049211;28;20083;-80
2023/08/18 01:33:53;;;;;;;15.10;12.85;;;;;;;17.11;100.00;101618.06;5045943;28;20064;-80
2023/08/18 01:36:21;;;;;;;13.63;12.23;;;;;;;17.10;100.00;101619.88;5031082;28;20112;-80
2023/08/18 01:38:49;;;;;;;14.13;12.82;;;;;;;17.09;100.00;101617.34;5028456;28;20645;-80
2023/08/18 01:41:19;;;;;;;14.10;12.70;;;;;;;17.09;100.00;101615.53;5031230;28;20036;-80
2023/08/18 01:43:44;;;;;;;13.68;12.35;;;;;;;17.08;100.00;101607.69;5025247;28;20069;-80
2023/08/18 01:46:10;;;;;;;13.38;12.18;;;;;;;17.05;100.00;101602.66;5031845;28;20077;-79
2023/08/18 01:48:35;;;;;;;14.85;13.25;;;;;;;17.03;100.00;101604.59;5050294;28;20115;-80
2023/08/18 01:51:00;;;;;;;13.57;12.18;;;;;;;17.03;100.00;101604.59;5051488;28;20862;-80
2023/08/18 01:53:26;;;;;;;13.68;12.38;;;;;;;17.01;100.00;101603.91;5034475;28;20022;-80
2023/08/18 01:55:51;;;;;;;14.65;12.98;;;;;;;17.01;100.00;101611.88;5050409;28;20036;-80
2023/08/18 01:58:16;;;;;;;14.55;13.02;;;;;;;16.99;100.00;101601.38;5042239;28;20036;-80
2023/08/18 02:00:42;;;;;;;14.27;12.95;;;;;;;16.99;100.00;101596.06;5027165;28;20386;-80
2023/08/18 02:03:10;;;;;;;15.02;13.43;;;;;;;17.02;100.00;101597.59;5011892;28;20114;-80
2023/08/18 02:05:39;;;;;;;14.65;13.18;;;;;;;17.02;100.00;101595.78;5024052;28;20021;-80
2023/08/18 02:08:06;;;;;;;14.70;13.27;;;;;;;17.01;100.00;101595.94;5050628;28;20039;-81
2023/08/18 02:10:31;;;;;;;14.07;12.77;;;;;;;17.02;100.00;101601.09;5048721;28;20420;-80
2023/08/18 02:12:57;;;;;;;15.10;13.80;;;;;;;17.05;100.00;101597.31;5049735;28;20025;-81
2023/08/18 02:15:22;;;;;;;15.82;13.32;;;;;;;17.04;100.00;101606.28;5039240;28;20087;-80
2023/08/18 02:17:47;;;;;;;13.85;12.55;;;;;;;16.98;100.00;101602.34;5020826;28;20512;-80
2023/08/18 02:20:13;;;;;;;14.10;12.70;;;;;;;16.95;100.00;101596.47;5028038;28;20025;-80
2023/08/18 02:22:38;;;;;;;13.65;12.25;;;;;;;16.94;100.00;101600.09;5060719;28;20501;-80
2023/08/18 02:25:04;;;;;;;14.90;13.40;;;;;;;16.91;100.00;101594.09;5030008;28;20038;-80
2023/08/18 02:27:29;;;;;;;14.55;13.25;;;;;;;16.90;100.00;101594.22;5028186;28;20033;-80
2023/08/18 02:29:55;;;;;;;14.07;12.75;;;;;;;16.89;100.00;101598.69;5029572;28;20025;-81
2023/08/18 02:32:20;;;;;;;14.05;12.73;;;;;;;16.86;100.00;101596.31;5024942;28;20029;-81
2023/08/18 02:34:46;;;;;;;14.63;13.13;;;;;;;16.85;100.00;101594.63;5022750;28;20478;-81
2023/08/18 02:37:11;;;;;;;14.80;13.32;;;;;;;16.82;100.00;101592.25;5030022;28;20025;-80
2023/08/18 02:39:38;;;;;;;15.35;13.52;;;;;;;16.84;100.00;101589.47;5040168;28;20397;-81
2023/08/18 02:42:05;;;;;;;15.00;13.57;;;;;;;16.83;100.00;101578.00;5029451;28;20022;-80
2023/08/18 02:44:30;;;;;;;15.68;14.13;;;;;;;16.78;100.00;101584.66;5041311;28;20112;-81
2023/08/18 02:46:56;;;;;;;16.45;14.70;;;;;;;16.75;100.00;101580.47;5049380;28;20175;-80
2023/08/18 02:49:21;;;;;;;15.50;14.00;;;;;;;16.76;100.00;101582.13;5049026;28;20021;-80
2023/08/18 02:51:47;;;;;;;15.35;13.93;;;;;;;16.75;100.00;101585.78;5031488;28;20021;-80
2023/08/18 02:54:12;;;;;;;15.07;13.77;;;;;;;16.77;100.00;101594.44;5024122;28;20111;-81
2023/08/18 02:56:38;;;;;;;16.40;14.57;;;;;;;16.73;100.00;101585.06;5031598;28;20802;-81
2023/08/18 02:59:03;;;;;;;15.80;14.25;;;;;;;16.71;100.00;101576.38;5032262;28;20082;-81
2023/08/18 03:01:29;;;;;;;15.45;14.05;;;;;;;16.69;100.00;101570.38;5043955;28;20032;-80
2023/08/18 03:03:54;;;;;;;15.73;14.32;;;;;;;16.69;100.00;101581.00;5049548;28;20016;-80
2023/08/18 03:06:19;;;;;;;16.20;14.60;;;;;;;16.68;100.00;101584.63;5048976;28;20040;-81
2023/08/18 03:08:45;;;;;;;15.45;14.05;;;;;;;16.67;100.00;101582.13;5024188;28;20037;-81
2023/08/18 03:11:10;;;;;;;15.90;14.38;;;;;;;16.67;100.00;101577.63;5029377;28;20025;-80
2023/08/18 03:13:36;;;;;;;15.38;13.98;;;;;;;16.67;100.00;101580.28;5030560;28;20048;-80
2023/08/18 03:16:03;;;;;;;15.90;14.13;;;;;;;16.64;100.00;101572.56;5029140;28;20512;-81
2023/08/18 03:18:28;;;;;;;16.05;14.55;;;;;;;16.61;100.00;101576.34;5028327;28;20385;-80
2023/08/18 03:20:59;;;;;;;16.33;14.73;;;;;;;16.58;100.00;101583.75;5010064;28;20029;-81
2023/08/18 03:23:25;;;;;;;16.23;14.63;;;;;;;16.55;100.00;101589.31;5027497;28;20075;-80
2023/08/18 03:25:50;;;;;;;16.05;14.52;;;;;;;16.53;100.00;101586.78;5043339;28;20029;-80
2023/08/18 03:28:15;;;;;;;17.45;15.73;;;;;;;16.52;100.00;101581.63;5046212;28;20033;-80
2023/08/18 03:30:43;;;;;;;17.15;15.45;;;;;;;16.55;100.00;101579.53;5049261;28;20503;-80
2023/08/18 03:33:12;;;;;;;17.35;15.65;;;;;;;16.54;100.00;101577.00;5048507;28;20017;-80
2023/08/18 03:35:40;;;;;;;17.55;15.80;;;;;;;16.52;100.00;101577.16;5046629;28;20025;-80
2023/08/18 03:38:06;;;;;;;18.42;16.58;;;;;;;16.50;100.00;101575.59;5043874;28;20060;-80
2023/08/18 03:40:31;;;;;;;18.35;16.55;;;;;;;16.46;100.00;101577.69;5022601;28;20068;-80
2023/08/18 03:42:56;;;;;;;18.42;16.55;;;;;;;16.46;100.00;101582.16;5027807;28;20032;-80
2023/08/18 03:45:22;;;;;;;18.85;16.95;;;;;;;16.42;100.00;101578.09;5027342;28;20489;-80
2023/08/18 03:47:47;;;;;;;19.80;17.83;;;;;;;16.38;100.00;101576.66;5041885;28;20122;-80
2023/08/18 03:50:13;;;;;;;19.40;17.17;;;;;;;16.38;100.00;101571.34;5045684;28;20025;-80
2023/08/18 03:52:39;;;;;;;20.58;17.25;;;;;;;16.35;100.00;101576.91;5045156;28;20021;-81
2023/08/18 03:55:04;;;;;;;20.70;18.30;;;;;;;16.32;100.00;101582.50;5028686;28;20120;-81
2023/08/18 03:57:30;;;;;;;20.58;17.58;;;;;;;16.32;100.00;101583.34;5028676;28;20084;-80
2023/08/18 03:59:55;;;;;;;20.15;18.33;;;;;;;16.28;100.00;101577.44;5026924;28;20022;-80
2023/08/18 04:02:22;;;;;;;20.13;18.23;;;;;;;16.26;100.00;101568.78;5048630;28;20028;-80
2023/08/18 04:04:47;;;;;;;20.65;18.63;;;;;;;16.26;100.00;101576.75;5047646;28;20562;-81
2023/08/18 04:07:13;;;;;;;20.23;18.30;;;;;;;16.27;100.00;101581.06;5046588;28;20108;-80
2023/08/18 04:09:38;;;;;;;20.48;18.27;;;;;;;16.26;100.00;101574.09;5042661;28;20021;-80
2023/08/18 04:12:04;;;;;;;21.70;19.40;;;;;;;16.26;100.00;101579.41;5023090;28;20576;-81
2023/08/18 04:14:29;;;;;;;21.13;18.98;;;;;;;16.28;100.00;101577.44;5030944;28;20033;-80
2023/08/18 04:16:55;;;;;;;19.92;17.80;;;;;;;16.26;100.00;101568.78;5035648;28;20388;-81
2023/08/18 04:19:20;;;;;;;20.40;18.25;;;;;;;16.28;100.00;101568.63;5049199;28;20036;-80
2023/08/18 04:21:45;;;;;;;19.73;17.67;;;;;;;16.28;100.00;101566.81;5047609;28;20036;-80
2023/08/18 04:24:13;;;;;;;21.00;18.65;;;;;;;16.27;100.00;101565.16;5034638;28;20378;-81
2023/08/18 04:26:39;;;;;;;20.40;17.92;;;;;;;16.23;100.00;101563.72;5049565;28;20029;-81
2023/08/18 04:29:05;;;;;;;21.88;18.75;;;;;;;16.18;100.00;101565.94;5027845;28;20044;-80
2023/08/18 04:31:30;;;;;;;20.60;18.40;;;;;;;16.19;100.00;101567.63;5039776;28;20151;-80
2023/08/18 04:33:56;;;;;;;22.38;19.10;;;;;;;16.18;100.00;101559.78;5011674;28;20105;-81
2023/08/18 04:36:21;;;;;;;22.63;19.33;;;;;;;16.18;100.00;101555.31;5024742;28;20400;-80
2023/08/18 04:38:47;;;;;;;20.98;18.73;;;;;;;16.18;100.00;101555.31;5032897;28;20025;-81
2023/08/18 04:41:12;;;;;;;21.80;19.48;;;;;;;16.19;100.00;101558.81;5040307;28;20025;-81
2023/08/18 04:43:38;;;;;;;22.92;19.90;;;;;;;16.20;100.00;101564.00;5044535;28;20025;-81
2023/08/18 04:46:03;;;;;;;24.75;20.10;;;;;;;16.18;100.00;101560.63;5042446;28;20049;-81
2023/08/18 04:48:29;;;;;;;23.48;19.58;;;;;;;16.14;100.00;101569.84;5033444;28;20389;-81
2023/08/18 04:50:54;;;;;;;25.75;19.95;;;;;;;16.11;100.00;101570.09;5043567;28;20021;-81
2023/08/18 04:53:21;;;;;;;23.63;20.13;;;;;;;16.14;100.00;101571.66;5039489;28;20469;-81
2023/08/18 04:55:46;;;;;;;23.15;19.13;;;;;;;16.15;100.00;101576.00;5051184;28;20025;-80
2023/08/18 04:58:15;;;;;;;24.20;19.38;;;;;;;16.19;100.00;101578.25;5049121;28;20373;-81
2023/08/18 05:00:44;;;;;;;25.00;20.90;;;;;;;16.19;100.00;101577.41;5042670;28;20466;-80
2023/08/18 05:03:10;;;;;;;25.38;19.98;;;;;;;16.21;100.00;101578.97;5028418;28;20221;-81
2023/08/18 05:05:55;;;;;;;25.48;19.88;;;;;;;16.20;100.00;101569.31;5031994;28;20032;-80
2023/08/18 05:08:21;;;;;;;27.85;19.42;;;;;;;16.22;100.00;101571.84;5031616;28;20029;-81
2023/08/18 05:10:46;;;;;;;22.67;19.77;;;;;;;16.24;100.00;101565.41;5031372;28;20821;-81
2023/08/18 05:13:11;;;;;;;23.92;19.00;;;;;;;16.30;100.00;101558.72;5044429;28;20029;-81
2023/08/18 05:15:37;;;;;;;24.48;19.52;;;;;;;16.28;100.00;101561.50;5051535;28;20021;-81
2023/08/18 05:18:02;;;;;;;24.67;19.52;;;;;;;16.27;100.00;101559.84;5048929;28;20113;-81
2023/08/18 05:20:28;;;;;;;21.67;18.83;;;;;;;16.27;100.00;101554.53;5024469;28;20444;-80
2023/08/18 05:22:54;;;;;;;23.95;20.15;;;;;;;16.28;100.00;101550.88;5038393;28;20056;-80
2023/08/18 05:25:19;;;;;;;22.58;19.13;;;;;;;16.30;100.00;101559.56;5047674;28;20292;-80
2023/08/18 05:27:44;;;;;;;27.13;19.80;;;;;;;16.36;100.00;101554.69;5049761;28;20021;-81
2023/08/18 05:30:10;;;;;;;26.33;19.55;;;;;;;16.41;100.00;101555.13;5041945;28;20028;-81
2023/08/18 05:32:35;;;;;;;28.27;19.92;;;;;;;16.41;100.00;101557.78;5050957;28;20028;-81
2023/08/18 05:35:01;;;;;;;25.85;20.38;;;;;;;16.42;100.00;101551.53;5051515;28;20425;-80
2023/08/18 05:37:26;;;;;;;25.58;20.58;;;;;;;16.43;100.00;101548.72;5026625;28;20463;-80
2023/08/18 05:39:53;;;;;;;25.45;20.38;;;;;;;16.44;100.00;101554.88;5039363;28;20027;-80
2023/08/18 05:42:19;;;;;;;26.73;20.17;;;;;;;16.45;100.00;101557.41;5051354;28;20036;-80
2023/08/18 05:44:44;;;;;;;29.15;21.88;;;;;;;16.46;100.00;101558.25;5041242;28;20022;-80
2023/08/18 05:47:09;;;;;;;25.77;21.55;;;;;;;16.45;100.00;101559.22;5048742;28;20067;-80
2023/08/18 05:49:35;;;;;;;25.30;21.40;;;;;;;16.46;100.00;101558.25;5051523;28;20044;-80
2023/08/18 05:52:00;;;;;;;25.67;20.83;;;;;;;16.46;100.00;101552.94;5049550;28;20599;-80
2023/08/18 05:54:26;;;;;;;26.02;21.35;;;;;;;16.46;100.00;101558.25;5032824;28;20037;-80
2023/08/18 05:56:52;;;;;;;27.23;21.08;;;;;;;16.45;100.00;101560.06;5023159;28;20029;-80
2023/08/18 05:59:17;;;;;;;25.02;21.48;;;;;;;16.46;100.00;101558.25;5039758;28;20492;-80
2023/08/18 06:01:43;;;;;;;24.02;21.35;;;;;;;16.50;100.00;101557.00;5043421;28;20033;-79
2023/08/18 06:04:08;;;;;;;23.38;20.75;;;;;;;16.55;100.00;101571.56;5051143;28;20111;-80
2023/08/18 06:06:34;;;;;;;23.17;20.73;;;;;;;16.52;100.00;101563.03;5032159;28;20052;-80
2023/08/18 06:09:01;;;;;;;24.73;21.98;;;;;;;16.50;100.00;101570.28;5030840;28;20108;-80
2023/08/18 06:11:27;;;;;;;26.27;22.63;;;;;;;16.51;100.00;101574.63;5020457;28;20046;-81
2023/08/18 06:13:52;;;;;;;27.98;23.30;;;;;;;16.42;100.00;101567.47;5028317;28;20108;-80
2023/08/18 06:16:18;;;;;;;27.63;22.90;;;;;;;16.39;100.00;101562.38;5030423;28;20132;-84
2023/08/18 06:18:43;;;;;;;25.83;22.85;;;;;;;16.41;100.00;101568.41;5029182;28;20029;-84
2023/08/18 06:21:08;;;;;;;25.00;22.30;;;;;;;16.40;100.00;101569.38;5047725;28;20025;-83
2023/08/18 06:23:34;;;;;;;26.10;22.20;;;;;;;16.39;100.00;101573.00;5050318;28;20028;-83
2023/08/18 06:25:59;;;;;;;27.48;23.20;;;;;;;16.38;100.00;101566.03;5048798;28;20029;-80
2023/08/18 06:28:26;;;;;;;26.70;23.80;;;;;;;16.36;100.00;101568.81;5027286;28;20025;-79
2023/08/18 06:30:51;;;;;;;27.10;23.73;;;;;;;16.41;100.00;101560.44;5030200;28;20108;-79
2023/08/18 06:33:17;;;;;;;26.48;23.23;;;;;;;16.44;100.00;101550.41;5035118;28;20108;-79
2023/08/18 06:35:42;;;;;;;33.08;25.08;;;;;;;16.42;100.00;101559.50;5047943;28;20036;-79
2023/08/18 06:38:08;;;;;;;28.70;24.38;;;;;;;16.40;100.00;101559.59;5043825;28;20110;-76
2023/08/18 06:40:33;;;;;;;29.13;25.02;;;;;;;16.38;100.00;101558.06;5048411;28;20116;-79
2023/08/18 06:42:58;;;;;;;27.20;24.15;;;;;;;16.40;100.00;101559.59;5044175;28;20032;-79
2023/08/18 06:45:24;;;;;;;28.95;24.50;;;;;;;16.43;100.00;101558.53;5031882;28;20040;-79
2023/08/18 06:47:49;;;;;;;31.48;25.63;;;;;;;16.45;100.00;101562.72;5045050;28;20037;-79
2023/08/18 06:50:15;;;;;;;31.50;25.88;;;;;;;16.46;100.00;101558.25;5049619;28;20021;-79
2023/08/18 06:52:40;;;;;;;33.38;27.05;;;;;;;16.45;100.00;101562.72;5042688;28;20473;-79
2023/08/18 06:55:06;;;;;;;32.80;27.83;;;;;;;16.48;100.00;101559.78;5046948;28;20477;-79
2023/08/18 06:57:32;;;;;;;33.72;28.08;;;;;;;16.49;100.00;101555.31;5031814;28;20417;-79
2023/08/18 06:59:58;;;;;;;32.75;26.67;;;;;;;16.49;100.00;101560.63;5047193;28;20026;-79
2023/08/18 07:02:23;;;;;;;30.58;25.90;;;;;;;16.54;100.00;101551.28;5030438;28;20059;-79
2023/08/18 07:04:49;;;;;;;30.00;26.20;;;;;;;16.60;100.00;101544.59;5040931;28;20072;-79
2023/08/18 07:07:15;;;;;;;31.25;26.45;;;;;;;16.56;100.00;101537.88;5048531;28;20362;-80
2023/08/18 07:09:40;;;;;;;30.80;26.80;;;;;;;16.57;100.00;101545.69;5026629;28;20056;-79
2023/08/18 07:12:06;;;;;;;31.13;26.52;;;;;;;16.61;100.00;101540.94;5029932;28;20511;-79
2023/08/18 07:14:31;;;;;;;30.05;26.45;;;;;;;16.62;100.00;101534.66;5045667;28;20036;-79
2023/08/18 07:16:57;;;;;;;31.30;26.10;;;;;;;16.69;100.00;101533.16;5046170;28;20029;-79
2023/08/18 07:19:22;;;;;;;29.17;25.98;;;;;;;16.78;100.00;101529.69;5022624;28;20033;-79
2023/08/18 07:21:48;;;;;;;29.90;25.20;;;;;;;16.83;100.00;101530.13;5026795;28;20072;-78
2023/08/18 07:24:14;;;;;;;28.40;24.65;;;;;;;16.89;100.00;101540.22;5027097;28;20078;-78
2023/08/18 07:26:39;;;;;;;28.63;25.05;;;;;;;16.95;100.00;101538.00;5028543;28;20022;-78
2023/08/18 07:29:04;;;;;;;28.23;24.85;;;;;;;17.03;100.00;101540.78;5044987;28;20029;-79
2023/08/18 07:31:31;;;;;;;27.00;24.08;;;;;;;17.09;100.00;101540.22;5044422;28;20661;-78
2023/08/18 07:33:57;;;;;;;27.52;23.58;;;;;;;17.14;100.00;101549.47;5049002;28;20082;-79
2023/08/18 07:36:22;;;;;;;26.50;23.08;;;;;;;17.12;100.00;101546.09;5035511;28;20029;-78
2023/08/18 07:38:48;;;;;;;27.60;24.70;;;;;;;17.12;100.00;101546.09;5044658;28;20392;-78
2023/08/18 07:41:13;;;;;;;30.50;25.63;;;;;;;17.14;100.00;101548.63;5048864;28;20033;-79
2023/08/18 07:43:39;;;;;;;30.42;25.40;;;;;;;17.11;100.00;101548.91;5048989;28;20036;-78
2023/08/18 07:46:05;;;;;;;29.10;25.50;;;;;;;17.18;100.00;101545.56;5039003;28;20087;-79
2023/08/18 07:48:30;;;;;;;31.63;26.23;;;;;;;17.17;100.00;101543.03;5028827;28;20079;-79
2023/08/18 07:50:56;;;;;;;29.00;24.85;;;;;;;17.28;100.00;101540.25;5025085;28;20025;-79
2023/08/18 07:53:22;;;;;;;26.80;23.95;;;;;;;17.37;100.00;101544.72;5033769;28;20020;-79
2023/08/18 07:55:47;;;;;;;25.77;23.10;;;;;;;17.43;100.00;101549.47;5032017;28;20075;-79
2023/08/18 07:58:12;;;;;;;25.88;23.02;;;;;;;17.50;100.00;101550.59;5029673;28;20485;-79
2023/08/18 08:00:38;;;;;;;28.63;25.15;;;;;;;17.49;100.00;101554.25;5041077;28;20029;-79
2023/08/18 08:03:03;;;;;;;27.95;24.90;;;;;;;17.54;100.00;101559.13;5034339;28;20074;-79
2023/08/18 08:05:29;;;;;;;27.48;24.48;;;;;;;17.55;100.00;101553.66;5039034;28;20072;-79
2023/08/18 08:07:54;;;;;;;26.48;23.52;;;;;;;17.57;100.00;101550.03;5031568;28;20037;-79
2023/08/18 08:10:20;;;;;;;28.58;24.90;;;;;;;17.58;100.00;101559.69;5031491;28;20447;-79
2023/08/18 08:12:47;;;;;;;29.30;26.20;;;;;;;17.59;100.00;101556.03;5044990;28;20076;-79
2023/08/18 08:15:13;;;;;;;30.25;26.42;;;;;;;17.52;100.00;101553.97;5052132;28;20051;-79
2023/08/18 08:17:39;;;;;;;32.75;26.15;;;;;;;17.59;100.00;101556.03;5031796;28;20114;-80
2023/08/18 08:20:16;;;;;;;30.25;26.23;;;;;;;17.59;100.00;101564.03;5048967;28;20032;-79
2023/08/18 08:22:46;;;;;;;30.05;25.73;;;;;;;17.63;100.00;101560.13;5028494;28;20033;-79
2023/08/18 08:25:12;;;;;;;31.60;26.80;;;;;;;17.65;100.00;101566.16;5039767;28;20560;-78
2023/08/18 08:27:38;;;;;;;29.75;26.55;;;;;;;17.65;100.00;101559.00;5027983;28;20060;-78
2023/08/18 08:30:06;;;;;;;30.15;26.75;;;;;;;17.64;100.00;101557.34;5034423;28;20052;-79
2023/08/18 08:32:31;;;;;;;31.02;26.25;;;;;;;17.68;100.00;101563.25;5031364;28;20565;-79
2023/08/18 08:34:56;;;;;;;33.47;26.95;;;;;;;17.64;100.00;101567.97;5035509;28;20116;-79
2023/08/18 08:37:22;;;;;;;31.48;26.48;;;;;;;17.58;100.00;101573.00;5028528;28;20021;-80
2023/08/18 08:39:47;;;;;;;29.23;25.65;;;;;;;17.62;100.00;101574.44;5031691;28;20390;-80
2023/08/18 08:42:13;;;;;;;29.13;25.33;;;;;;;17.68;100.00;101576.53;5027892;28;20025;-82
2023/08/18 08:44:39;;;;;;;28.45;25.48;;;;;;;17.70;100.00;101579.91;5030907;28;20110;-84
2023/08/18 08:47:05;;;;;;;28.85;25.60;;;;;;;17.79;100.00;101582.56;5031689;28;20037;-79
2023/08/18 08:49:34;;;;;;;27.13;24.17;;;;;;;17.74;100.00;101579.47;5031164;28;20056;-79
2023/08/18 08:52:05;;;;;;;27.58;23.55;;;;;;;17.78;100.00;101578.22;5031133;28;20032;-80
2023/08/18 08:54:36;;;;;;;26.65;23.23;;;;;;;17.76;100.00;101572.19;5029428;28;20037;-79
2023/08/18 08:57:05;;;;;;;29.27;24.55;;;;;;;17.76;100.00;101576.66;5026360;28;20048;-79
2023/08/18 08:59:30;;;;;;;25.67;23.05;;;;;;;17.76;100.00;101576.66;5027761;28;20030;-79
2023/08/18 09:01:56;;;;;;;25.65;22.83;;;;;;;17.81;100.00;101585.06;5031548;28;20083;-79
2023/08/18 09:04:22;;;;;;;26.08;23.35;;;;;;;17.80;100.00;101591.38;5032338;28;20017;-78
2023/08/18 09:06:48;;;;;;;26.58;23.70;;;;;;;17.91;100.00;101595.69;5030850;28;20036;-79
2023/08/18 09:09:14;;;;;;;26.13;23.33;;;;;;;17.90;100.00;101583.38;5035841;28;20025;-80
2023/08/18 09:11:42;;;;;;;25.63;22.83;;;;;;;17.94;100.00;101590.91;5051575;28;20033;-79
2023/08/18 09:14:12;;;;;;;25.42;22.70;;;;;;;17.97;100.00;101585.31;5047358;28;20035;-79
2023/08/18 09:16:38;;;;;;;25.52;22.75;;;;;;;17.98;100.00;101586.97;5051151;28;20106;-79
2023/08/18 09:19:03;;;;;;;24.98;22.38;;;;;;;18.02;100.00;101588.41;5040231;28;20112;-79
2023/08/18 09:21:29;;;;;;;24.90;22.30;;;;;;;18.04;100.00;101591.75;5041703;28;20044;-80
2023/08/18 09:23:56;;;;;;;25.95;23.15;;;;;;;18.02;100.00;101587.56;5029723;28;20036;-79
2023/08/18 09:26:21;;;;;;;26.73;23.20;;;;;;;17.98;100.00;101564.84;5037261;28;20385;-79
2023/08/18 09:28:47;;;;;;;26.60;23.65;;;;;;;17.97;100.00;101563.16;5048227;28;20021;-80
2023/08/18 09:31:12;;;;;;;26.95;24.15;;;;;;;18.07;100.00;101559.53;5038539;28;20123;-79
2023/08/18 09:33:40;;;;;;;26.60;23.80;;;;;;;18.18;100.00;101566.47;5032283;28;20029;-77
2023/08/18 09:36:06;;;;;;;28.02;24.92;;;;;;;18.26;100.00;101569.25;5032628;28;20038;-77
2023/08/18 09:38:44;;;;;;;27.50;24.50;;;;;;;18.37;100.00;101570.88;5048613;28;20087;-78
2023/08/18 09:41:10;;;;;;;26.75;23.60;;;;;;;18.50;100.00;101566.09;5049170;28;20055;-78
2023/08/18 09:43:36;;;;;;;25.85;23.08;;;;;;;18.59;100.00;101565.19;5054002;28;20055;-78
2023/08/18 09:46:05;;;;;;;27.73;24.92;;;;;;;18.65;100.00;101563.78;5062741;28;20052;-77
2023/08/18 09:48:35;;;;;;;27.85;24.88;;;;;;;18.64;100.00;101573.63;5066717;28;20098;-77
2023/08/18 09:51:03;;;;;;;29.60;26.60;;;;;;;18.68;100.00;101564.34;5048877;28;20038;-78
2023/08/18 09:53:32;;;;;;;30.02;25.65;;;;;;;18.67;100.00;101567.16;5060937;28;20028;-78
2023/08/18 09:56:06;;;;;;;27.50;24.60;;;;;;;18.83;100.00;101566.53;5035833;28;20029;-78
2023/08/18 09:58:52;;;;;;;26.52;23.77;;;;;;;18.91;100.00;101558.59;5044891;28;20045;-77
2023/08/18 10:01:18;;;;;;;30.23;26.23;;;;;;;18.89;100.00;101552.59;5044639;28;20039;-77
2023/08/18 10:03:46;;;;;;;29.40;26.40;;;;;;;19.06;100.00;101563.25;5035511;28;20478;-77
2023/08/18 10:06:12;;;;;;;29.00;26.00;;;;;;;19.20;100.00;101559.22;5030617;28;20021;-79
2023/08/18 10:08:37;;;;;;;30.90;27.70;;;;;;;19.29;100.00;101561.00;5031196;28;20032;-78
2023/08/18 10:11:02;;;;;;;31.90;28.50;;;;;;;19.30;100.00;101562.69;5029440;28;20478;-78
2023/08/18 10:13:33;;;;;;;30.45;27.17;;;;;;;19.23;100.00;101558.94;5028768;28;20022;-78
2023/08/18 10:16:03;;;;;;;30.23;27.13;;;;;;;19.23;100.00;101553.59;5036517;28;20029;-79
2023/08/18 10:18:29;;;;;;;29.38;26.42;;;;;;;19.31;100.00;101540.34;5044136;28;20024;-78
2023/08/18 10:20:56;;;;;;;30.08;26.83;;;;;;;19.42;100.00;101541.91;5037708;28;20045;-78
2023/08/18 10:23:28;;;;;;;31.85;28.65;;;;;;;19.46;100.00;101547.78;5043463;28;20017;-79
2023/08/18 10:25:53;;;;;;;32.75;29.40;;;;;;;19.50;100.00;101536.66;5043369;28;20040;-79
2023/08/18 10:28:19;;;;;;;35.45;31.58;;;;;;;19.61;100.00;101530.25;5049507;28;20025;-79
2023/08/18 10:30:57;;;;;;;35.95;32.22;;;;;;;19.81;100.00;101526.41;5050970;28;20024;-77
2023/08/18 10:33:37;;;;;;;37.47;33.33;;;;;;;19.98;100.00;101521.97;5046571;28;20038;-76
2023/08/18 10:36:04;;;;;;;36.15;32.40;;;;;;;20.17;100.00;101518.25;5048848;28;20032;-77
2023/08/18 10:38:30;;;;;;;34.30;30.80;;;;;;;20.28;100.00;101531.34;5033365;28;20031;-77
2023/08/18 10:40:56;;;;;;;32.35;29.10;;;;;;;20.39;100.00;101528.38;5053791;28;20056;-78
2023/08/18 10:43:26;;;;;;;33.92;30.63;;;;;;;20.49;100.00;101523.78;5053664;28;20033;-78
2023/08/18 10:45:58;;;;;;;33.63;30.38;;;;;;;20.64;100.00;101516.81;5040897;28;20044;-78
2023/08/18 10:48:28;;;;;;;31.92;28.63;;;;;;;20.67;100.00;101521.00;5028980;28;20029;-78
2023/08/18 10:50:53;;;;;;;32.05;28.80;;;;;;;20.70;99.49;101514.47;5028747;28;20017;-78
2023/08/18 10:53:18;;;;;;;31.23;28.13;;;;;;;20.77;99.28;101504.81;5033769;28;20032;-78
2023/08/18 10:55:44;;;;;;;30.20;27.13;;;;;;;20.91;98.29;101509.53;5032894;28;20050;-78
2023/08/18 10:58:10;;;;;;;30.00;27.00;;;;;;;20.85;98.50;101504.84;5030634;28;20033;-78